Time;durP1;ratioP1;P1;durP2;ratioP2;P2;SDS_P1;SDS_P2;PMS_P1;PMS_P2;Temp;Humidity;BMP_temperature;BMP_pressure;BME280_temperature;BME280_humidity;BME280_pressure;Samples;Min_cycle;Max_cycle;Signal;HPM_P1;HPM_P2
2022/06/28 00:00:57;;;;;;;7.07;4.57;;;12.70;99.90;;;;;;5091253;28;20037;-64
2022/06/28 00:03:23;;;;;;;9.07;5.22;;;12.70;99.90;;;;;;5090493;28;20430;-65
2022/06/28 00:05:48;;;;;;;8.10;4.93;;;12.70;99.90;;;;;;5090645;28;20016;-64
2022/06/28 00:08:14;;;;;;;8.40;4.55;;;12.70;99.90;;;;;;5091064;28;20021;-65
2022/06/28 00:10:40;;;;;;;10.55;5.45;;;12.70;99.90;;;;;;5090156;28;20482;-64
2022/06/28 00:13:05;;;;;;;9.77;4.65;;;12.70;99.90;;;;;;5090660;28;20028;-64
2022/06/28 00:18:15;;;;;;;7.60;4.72;;;12.70;99.90;;;;;;5091295;28;20103;-65
2022/06/28 00:20:41;;;;;;;6.25;4.45;;;12.70;99.90;;;;;;5090857;28;20116;-64
2022/06/28 00:23:06;;;;;;;8.52;5.07;;;12.70;99.90;;;;;;5090249;28;20032;-64
2022/06/28 00:25:32;;;;;;;7.57;5.63;;;12.70;99.90;;;;;;5090921;28;20028;-64
2022/06/28 00:27:57;;;;;;;10.80;5.28;;;12.70;99.90;;;;;;5090283;28;20368;-65
2022/06/28 00:30:23;;;;;;;7.65;5.40;;;12.70;99.90;;;;;;5090239;28;20048;-65
2022/06/28 00:32:48;;;;;;;9.88;5.88;;;12.70;99.90;;;;;;5090187;28;20110;-65
2022/06/28 00:35:14;;;;;;;9.65;5.15;;;12.70;99.90;;;;;;5090579;28;20054;-64
2022/06/28 00:37:40;;;;;;;8.50;5.32;;;12.70;99.90;;;;;;5090862;28;20035;-64
2022/06/28 00:40:06;;;;;;;7.13;5.35;;;12.70;99.90;;;;;;5090441;28;20544;-64
2022/06/28 00:42:32;;;;;;;9.85;5.47;;;12.60;99.90;;;;;;5090585;28;20026;-64
2022/06/28 00:44:58;;;;;;;8.52;5.13;;;12.60;99.90;;;;;;5090529;28;20030;-64
2022/06/28 00:47:26;;;;;;;12.60;5.93;;;12.60;99.90;;;;;;5090379;28;20371;-65
2022/06/28 00:49:56;;;;;;;5.97;5.00;;;12.60;99.90;;;;;;5090786;28;20501;-64
2022/06/28 00:52:22;;;;;;;7.18;5.50;;;12.60;99.90;;;;;;5089938;28;20039;-64
2022/06/28 00:54:47;;;;;;;8.63;5.28;;;12.60;99.90;;;;;;5090244;28;20020;-65
2022/06/28 00:57:13;;;;;;;9.50;5.22;;;12.60;99.90;;;;;;5090328;28;20024;-65
2022/06/28 00:59:38;;;;;;;12.57;5.70;;;12.60;99.90;;;;;;5089563;28;20505;-64
2022/06/28 01:02:04;;;;;;;11.15;5.65;;;12.50;99.90;;;;;;5089884;28;20494;-64
2022/06/28 01:04:30;;;;;;;7.53;5.10;;;12.50;99.90;;;;;;5089820;28;20150;-65
2022/06/28 01:06:56;;;;;;;6.13;4.82;;;12.50;99.90;;;;;;5089556;28;20478;-65
2022/06/28 01:09:22;;;;;;;9.43;5.50;;;12.50;99.90;;;;;;5089170;28;20180;-65
2022/06/28 01:11:47;;;;;;;7.53;5.50;;;12.50;99.90;;;;;;5089345;28;20027;-64
2022/06/28 01:14:13;;;;;;;9.13;5.75;;;12.50;99.90;;;;;;5089543;28;20027;-64
2022/06/28 01:16:39;;;;;;;13.05;5.55;;;12.50;99.90;;;;;;5089601;28;20024;-65
2022/06/28 01:19:05;;;;;;;7.40;5.32;;;12.50;99.90;;;;;;5089877;28;20035;-64
2022/06/28 01:21:34;;;;;;;10.10;5.72;;;12.50;99.90;;;;;;5089208;28;20035;-65
2022/06/28 01:23:59;;;;;;;12.40;6.35;;;12.50;99.90;;;;;;5089116;28;20055;-64
2022/06/28 01:26:25;;;;;;;9.00;5.60;;;12.50;99.90;;;;;;5089500;28;20051;-64
2022/06/28 01:28:52;;;;;;;11.70;5.18;;;12.50;99.90;;;;;;5089464;28;20102;-64
2022/06/28 01:31:21;;;;;;;14.23;5.38;;;12.50;99.90;;;;;;5089091;28;20435;-64
2022/06/28 01:33:47;;;;;;;10.68;5.30;;;12.50;99.90;;;;;;5089419;28;20036;-64
2022/06/28 01:36:13;;;;;;;10.20;5.55;;;12.50;99.90;;;;;;5089477;28;20093;-65
2022/06/28 01:38:41;;;;;;;11.80;5.03;;;12.50;99.90;;;;;;5089088;28;20032;-64
2022/06/28 01:41:07;;;;;;;6.03;4.75;;;12.50;99.90;;;;;;5089317;28;20028;-65
2022/06/28 01:43:36;;;;;;;7.82;5.63;;;12.50;99.90;;;;;;5088978;28;20098;-64
2022/06/28 01:46:04;;;;;;;9.57;5.47;;;12.40;99.90;;;;;;5089197;28;20078;-65
2022/06/28 01:48:31;;;;;;;13.60;4.93;;;12.40;99.90;;;;;;5089666;28;20024;-64
2022/06/28 01:50:58;;;;;;;10.18;5.72;;;12.40;99.90;;;;;;5089839;28;20020;-65
2022/06/28 01:53:23;;;;;;;10.57;5.47;;;12.40;99.90;;;;;;5089916;28;20028;-64
2022/06/28 01:55:49;;;;;;;9.23;5.00;;;12.40;99.90;;;;;;5093277;28;20397;-65
2022/06/28 01:58:15;;;;;;;9.45;4.55;;;12.40;99.90;;;;;;5092982;28;20479;-63
2022/06/28 02:00:41;;;;;;;7.15;4.47;;;12.40;99.90;;;;;;5093012;28;20031;-64
2022/06/28 02:03:07;;;;;;;9.07;5.10;;;12.40;99.90;;;;;;5092450;28;20027;-64
2022/06/28 02:05:33;;;;;;;7.57;5.18;;;12.30;99.90;;;;;;5093649;28;20156;-65
2022/06/28 02:07:59;;;;;;;9.55;4.68;;;12.30;99.90;;;;;;5092401;28;20114;-64
2022/06/28 02:10:25;;;;;;;18.88;6.25;;;12.20;99.90;;;;;;5092925;28;20016;-64
2022/06/28 02:12:51;;;;;;;8.82;5.95;;;12.10;99.90;;;;;;5092989;28;20024;-64
2022/06/28 02:15:16;;;;;;;10.32;5.97;;;12.10;99.90;;;;;;5092866;28;20020;-64
2022/06/28 02:17:43;;;;;;;10.38;4.93;;;12.00;99.90;;;;;;5092614;28;20024;-65
2022/06/28 02:20:09;;;;;;;8.35;5.32;;;11.90;99.90;;;;;;5092793;28;20032;-65
2022/06/28 02:22:35;;;;;;;7.47;5.40;;;11.90;99.90;;;;;;5091953;28;20036;-64
2022/06/28 02:25:01;;;;;;;9.50;5.90;;;12.00;99.90;;;;;;5092701;28;20096;-65
2022/06/28 02:27:26;;;;;;;13.00;6.85;;;12.00;99.90;;;;;;5092450;28;20043;-65
2022/06/28 02:29:52;;;;;;;8.85;6.03;;;12.00;99.90;;;;;;5092573;28;20020;-65
2022/06/28 02:32:17;;;;;;;11.52;7.05;;;12.00;99.90;;;;;;5092122;28;20577;-65
2022/06/28 02:40:24;;;;;;;11.95;7.72;;;12.10;99.90;;;;;;5091990;28;20097;-65
2022/06/28 02:42:53;;;;;;;9.80;7.07;;;12.00;99.90;;;;;;5091894;28;20023;-64
2022/06/28 02:45:21;;;;;;;10.00;7.40;;;12.10;99.90;;;;;;5092307;28;20024;-65
2022/06/28 02:47:47;;;;;;;18.95;8.10;;;12.10;99.90;;;;;;5092179;28;20482;-64
2022/06/28 02:50:13;;;;;;;10.73;6.80;;;12.10;99.90;;;;;;5091527;28;20040;-64
2022/06/28 02:52:39;;;;;;;10.50;6.55;;;12.10;99.90;;;;;;5092383;28;20450;-65
2022/06/28 02:55:06;;;;;;;13.50;6.70;;;12.10;99.90;;;;;;5091681;28;20043;-64
2022/06/28 02:57:32;;;;;;;11.55;6.53;;;12.00;99.90;;;;;;5092282;28;20047;-66
2022/06/28 02:59:58;;;;;;;13.32;6.78;;;12.00;99.90;;;;;;5092329;28;20115;-64
2022/06/28 03:02:23;;;;;;;15.40;8.25;;;12.00;99.90;;;;;;5091813;28;20103;-64
2022/06/28 03:04:49;;;;;;;11.07;7.40;;;12.00;99.90;;;;;;5090997;28;20478;-64
2022/06/28 03:07:14;;;;;;;15.02;6.72;;;11.90;99.90;;;;;;5092279;28;20466;-64
2022/06/28 03:09:40;;;;;;;7.80;6.53;;;11.80;99.90;;;;;;5091627;28;20028;-64
2022/06/28 03:12:06;;;;;;;10.90;7.32;;;11.80;99.90;;;;;;5092000;28;20086;-64
2022/06/28 03:14:32;;;;;;;11.68;7.47;;;11.70;99.90;;;;;;5091831;28;20517;-64
2022/06/28 03:16:58;;;;;;;9.55;7.13;;;11.70;99.90;;;;;;5091817;28;20235;-64
2022/06/28 03:19:23;;;;;;;10.00;6.78;;;11.80;99.90;;;;;;5091624;28;20422;-64
2022/06/28 03:21:49;;;;;;;13.20;7.18;;;11.90;99.90;;;;;;5091505;28;20125;-64
2022/06/28 03:24:15;;;;;;;11.32;6.75;;;11.70;99.90;;;;;;5092000;28;20028;-64
2022/06/28 03:26:41;;;;;;;11.73;6.90;;;11.80;99.90;;;;;;5091658;28;20390;-64
2022/06/28 03:29:06;;;;;;;11.18;7.32;;;11.80;99.90;;;;;;5091893;28;20024;-64
2022/06/28 03:31:32;;;;;;;13.73;8.07;;;11.80;99.90;;;;;;5090959;28;20543;-65
2022/06/28 03:33:59;;;;;;;11.93;7.40;;;11.80;99.90;;;;;;5092271;28;20036;-64
2022/06/28 03:36:24;;;;;;;11.50;7.53;;;11.70;99.90;;;;;;5091571;28;20024;-64
2022/06/28 03:38:50;;;;;;;14.93;7.47;;;11.80;99.90;;;;;;5091017;28;20076;-64
2022/06/28 03:41:22;;;;;;;10.93;7.60;;;11.80;99.90;;;;;;5091294;28;20427;-64
2022/06/28 03:43:48;;;;;;;9.63;7.18;;;11.80;99.90;;;;;;5091312;28;20020;-63
2022/06/28 03:46:14;;;;;;;11.35;7.88;;;11.80;99.90;;;;;;5091116;28;20043;-64
2022/06/28 03:48:40;;;;;;;14.68;7.28;;;11.80;99.90;;;;;;5089992;28;20050;-64
2022/06/28 03:51:05;;;;;;;12.68;7.15;;;11.80;99.90;;;;;;5072855;28;20055;-64
2022/06/28 03:53:31;;;;;;;11.98;7.78;;;11.80;99.90;;;;;;5090530;28;20122;-64
2022/06/28 03:55:56;;;;;;;12.05;7.20;;;11.90;99.90;;;;;;5090676;28;20032;-64
2022/06/28 03:58:22;;;;;;;9.85;7.20;;;11.90;99.90;;;;;;5090948;28;20490;-64
2022/06/28 04:00:47;;;;;;;11.43;6.93;;;11.90;99.90;;;;;;5091166;28;20030;-64
2022/06/28 04:03:13;;;;;;;9.98;7.68;;;11.90;99.90;;;;;;5089854;28;20039;-64
2022/06/28 04:05:38;;;;;;;15.43;8.32;;;12.00;99.90;;;;;;5091274;28;20028;-64
2022/06/28 04:08:04;;;;;;;11.98;7.70;;;12.00;99.90;;;;;;5090387;28;20066;-64
2022/06/28 04:10:30;;;;;;;16.42;7.72;;;12.00;99.90;;;;;;5072514;28;20051;-64
2022/06/28 04:12:55;;;;;;;13.57;8.25;;;12.00;99.90;;;;;;5090300;28;20081;-64
2022/06/28 04:15:21;;;;;;;12.52;8.10;;;12.00;99.90;;;;;;5090800;28;20479;-64
2022/06/28 04:17:47;;;;;;;15.57;9.00;;;12.00;99.90;;;;;;5090399;28;20081;-64
2022/06/28 04:20:13;;;;;;;16.20;9.80;;;12.00;99.90;;;;;;5090123;28;20012;-64
2022/06/28 04:22:39;;;;;;;16.88;9.20;;;12.10;99.90;;;;;;5090021;28;20379;-64
2022/06/28 04:25:04;;;;;;;14.27;9.57;;;12.10;99.90;;;;;;5090567;28;20032;-64
2022/06/28 04:27:30;;;;;;;17.05;10.23;;;12.20;99.90;;;;;;5090588;28;20154;-64
2022/06/28 04:29:55;;;;;;;18.52;11.05;;;12.30;99.90;;;;;;5090232;28;20476;-64
2022/06/28 04:32:21;;;;;;;20.98;10.98;;;12.30;99.90;;;;;;5090047;28;20115;-64
2022/06/28 04:34:46;;;;;;;21.85;12.45;;;12.40;99.90;;;;;;5090628;28;20036;-64
2022/06/28 04:37:12;;;;;;;20.77;12.02;;;12.40;99.90;;;;;;5089392;28;20031;-64
2022/06/28 04:39:37;;;;;;;25.40;12.98;;;12.50;99.90;;;;;;5089784;28;20047;-65
2022/06/28 04:42:05;;;;;;;26.63;14.18;;;12.50;99.90;;;;;;5089948;28;20020;-64
2022/06/28 04:44:30;;;;;;;22.73;13.57;;;12.60;99.90;;;;;;5089572;28;20026;-64
2022/06/28 04:46:56;;;;;;;24.10;12.80;;;12.60;99.90;;;;;;5090599;28;20020;-64
2022/06/28 04:49:22;;;;;;;30.15;13.63;;;12.70;99.90;;;;;;5089671;28;20158;-64
2022/06/28 04:51:47;;;;;;;25.50;13.32;;;12.70;99.90;;;;;;5089841;28;20016;-65
2022/06/28 04:54:13;;;;;;;22.98;14.45;;;12.80;99.90;;;;;;5089674;28;20570;-65
2022/06/28 04:56:39;;;;;;;33.83;15.38;;;12.80;99.90;;;;;;5089706;28;20058;-64
2022/06/28 04:59:04;;;;;;;23.35;14.75;;;12.90;99.90;;;;;;5090061;28;20028;-64
2022/06/28 05:01:30;;;;;;;20.95;11.82;;;12.90;99.90;;;;;;5089666;28;20020;-65
2022/06/28 05:03:55;;;;;;;20.65;13.50;;;12.90;99.90;;;;;;5089948;28;20028;-64
2022/06/28 05:06:21;;;;;;;18.08;12.00;;;12.90;99.90;;;;;;5090053;28;20032;-64
2022/06/28 05:08:46;;;;;;;19.25;12.02;;;13.00;99.90;;;;;;5089455;28;20032;-64
2022/06/28 05:11:12;;;;;;;21.08;10.75;;;13.00;99.90;;;;;;5090190;28;20443;-65
2022/06/28 05:13:37;;;;;;;18.75;11.73;;;13.00;99.90;;;;;;5089408;28;20031;-66
2022/06/28 05:16:03;;;;;;;18.63;11.70;;;13.00;99.90;;;;;;5089952;28;20520;-65
2022/06/28 05:18:29;;;;;;;15.25;10.10;;;13.10;99.90;;;;;;5089914;28;20093;-65
2022/06/28 05:20:54;;;;;;;16.15;11.63;;;13.10;99.90;;;;;;5089847;28;20028;-65
2022/06/28 05:23:20;;;;;;;20.98;13.90;;;13.10;99.90;;;;;;5088899;28;20028;-64
2022/06/28 05:25:46;;;;;;;18.25;11.95;;;13.20;99.90;;;;;;5090482;28;20051;-65
2022/06/28 05:28:11;;;;;;;16.73;10.43;;;13.20;99.90;;;;;;5090486;28;20452;-64
2022/06/28 05:30:37;;;;;;;20.08;12.77;;;13.30;99.90;;;;;;5094323;28;20115;-64
2022/06/28 05:33:03;;;;;;;23.45;13.38;;;13.30;99.90;;;;;;5092758;28;20063;-64
2022/06/28 05:35:29;;;;;;;19.55;12.80;;;13.40;99.90;;;;;;5093864;28;20024;-65
2022/06/28 05:37:55;;;;;;;21.23;11.63;;;13.40;99.90;;;;;;5093638;28;20069;-65
2022/06/28 05:40:21;;;;;;;15.75;11.25;;;13.50;99.90;;;;;;5093350;28;20099;-65
2022/06/28 05:42:47;;;;;;;25.33;12.52;;;13.50;99.90;;;;;;5093256;28;20028;-65
2022/06/28 05:45:12;;;;;;;17.98;12.02;;;13.60;99.90;;;;;;5093542;28;20496;-65
2022/06/28 05:47:38;;;;;;;24.55;14.23;;;13.60;99.90;;;;;;5093543;28;20458;-65
2022/06/28 05:50:04;;;;;;;19.58;12.50;;;13.60;99.90;;;;;;5093357;28;20027;-65
2022/06/28 05:52:29;;;;;;;24.17;14.57;;;13.70;99.90;;;;;;5093105;28;20386;-65
2022/06/28 05:54:55;;;;;;;29.92;14.13;;;13.80;99.90;;;;;;5093298;28;20472;-65
2022/06/28 05:57:20;;;;;;;25.73;13.98;;;13.80;99.90;;;;;;5093005;28;20494;-64
2022/06/28 05:59:46;;;;;;;22.75;14.20;;;13.80;99.90;;;;;;5074449;28;20023;-65
2022/06/28 06:02:11;;;;;;;26.95;13.60;;;13.90;99.90;;;;;;5092306;28;20375;-65
2022/06/28 06:04:38;;;;;;;22.70;13.23;;;14.00;99.90;;;;;;5093752;28;20530;-65
2022/06/28 06:07:04;;;;;;;24.25;12.00;;;14.00;99.90;;;;;;5093254;28;20024;-65
2022/06/28 06:09:30;;;;;;;24.67;13.70;;;14.10;99.90;;;;;;5092823;28;20089;-65
2022/06/28 06:11:56;;;;;;;16.10;10.98;;;14.10;99.90;;;;;;5092713;28;20024;-65
2022/06/28 06:14:22;;;;;;;24.95;12.68;;;14.20;99.90;;;;;;5092752;28;20034;-65
2022/06/28 06:16:50;;;;;;;20.02;10.93;;;14.20;99.90;;;;;;5093395;28;20028;-65
2022/06/28 06:19:16;;;;;;;21.58;11.00;;;14.30;99.90;;;;;;5092546;28;20454;-65
2022/06/28 06:21:42;;;;;;;17.08;9.70;;;14.30;99.90;;;;;;5092977;28;20070;-65
2022/06/28 06:24:08;;;;;;;16.25;10.07;;;14.30;99.90;;;;;;5092892;28;20032;-65
2022/06/28 06:26:33;;;;;;;18.38;10.75;;;14.40;99.90;;;;;;5092893;28;20028;-64
2022/06/28 06:29:00;;;;;;;14.57;9.10;;;14.40;99.90;;;;;;5092031;28;20453;-65
2022/06/28 06:31:26;;;;;;;12.10;8.02;;;14.50;99.90;;;;;;5092273;28;20396;-65
2022/06/28 06:33:52;;;;;;;13.32;8.30;;;14.60;99.90;;;;;;5092143;28;20107;-64
2022/06/28 06:36:18;;;;;;;13.75;8.13;;;14.70;99.90;;;;;;5092380;28;20397;-65
2022/06/28 06:38:43;;;;;;;11.93;8.57;;;14.70;99.90;;;;;;5092223;28;20031;-65
2022/06/28 06:41:09;;;;;;;15.52;8.32;;;14.80;99.90;;;;;;5093503;28;20084;-64
2022/06/28 06:43:34;;;;;;;11.10;7.30;;;14.80;99.90;;;;;;5093049;28;20496;-64
2022/06/28 06:46:00;;;;;;;19.10;8.88;;;14.90;99.90;;;;;;5093270;28;20043;-64
2022/06/28 06:48:26;;;;;;;13.65;7.63;;;15.00;99.90;;;;;;5092349;28;20064;-64
2022/06/28 06:50:52;;;;;;;11.52;6.45;;;15.10;99.90;;;;;;5092252;28;20103;-64
2022/06/28 06:53:20;;;;;;;8.73;5.90;;;15.20;99.90;;;;;;5091590;28;20213;-64
2022/06/28 06:55:47;;;;;;;15.20;5.78;;;15.20;99.90;;;;;;5091901;28;20028;-64
2022/06/28 06:58:13;;;;;;;10.90;5.70;;;15.30;99.90;;;;;;5092477;28;20020;-64
2022/06/28 07:00:39;;;;;;;10.10;5.47;;;15.30;99.90;;;;;;5092188;28;20032;-64
2022/06/28 07:03:05;;;;;;;8.65;4.82;;;15.40;99.90;;;;;;5092153;28;20506;-64
2022/06/28 07:05:31;;;;;;;12.88;4.97;;;15.50;99.90;;;;;;5091874;28;20028;-64
2022/06/28 07:07:57;;;;;;;10.52;5.68;;;15.60;99.90;;;;;;5092310;28;20655;-64
2022/06/28 07:10:22;;;;;;;11.93;5.65;;;15.60;99.90;;;;;;5092343;28;20107;-64
2022/06/28 07:12:49;;;;;;;10.73;5.20;;;15.70;99.90;;;;;;5091815;28;20039;-64
2022/06/28 07:15:14;;;;;;;8.80;4.72;;;15.70;99.90;;;;;;5092420;28;20475;-64
2022/06/28 07:17:40;;;;;;;15.05;4.65;;;15.80;99.90;;;;;;5091677;28;20020;-64
2022/06/28 07:20:06;;;;;;;9.27;4.40;;;15.90;99.90;;;;;;5092177;28;20044;-64
2022/06/28 07:22:33;;;;;;;7.22;3.65;;;15.90;99.90;;;;;;5091651;28;20030;-64
2022/06/28 07:24:59;;;;;;;7.50;3.55;;;16.00;99.90;;;;;;5090553;28;20843;-64
2022/06/28 07:27:25;;;;;;;8.55;3.80;;;16.00;99.90;;;;;;5091250;28;20026;-64
2022/06/28 07:29:51;;;;;;;10.25;3.10;;;16.10;99.90;;;;;;5091300;28;20020;-64
2022/06/28 07:32:16;;;;;;;4.47;2.58;;;16.30;99.90;;;;;;5090968;28;20035;-64
2022/06/28 07:34:42;;;;;;;7.75;2.90;;;16.30;99.90;;;;;;5091661;28;20043;-64
2022/06/28 07:37:07;;;;;;;7.43;2.55;;;16.40;99.90;;;;;;5091532;28;20032;-64
2022/06/28 07:39:33;;;;;;;9.93;3.45;;;16.40;99.90;;;;;;5091624;28;20070;-64
2022/06/28 07:41:59;;;;;;;5.25;3.00;;;16.50;99.90;;;;;;5091164;28;20072;-64
2022/06/28 07:44:24;;;;;;;4.03;2.40;;;16.50;99.90;;;;;;5091560;28;20405;-64
2022/06/28 07:46:50;;;;;;;4.72;2.67;;;16.60;99.90;;;;;;5091497;28;20020;-64
2022/06/28 07:49:15;;;;;;;4.03;1.80;;;16.60;99.90;;;;;;5091614;28;20048;-64
2022/06/28 07:54:26;;;;;;;8.90;2.10;;;16.80;99.90;;;;;;5091379;28;20081;-64
2022/06/28 07:56:51;;;;;;;3.03;1.90;;;16.90;99.90;;;;;;5091931;28;20413;-64
2022/06/28 07:59:17;;;;;;;8.35;2.50;;;16.90;99.90;;;;;;5091104;28;20020;-64
2022/06/28 08:01:43;;;;;;;5.47;2.50;;;17.00;99.90;;;;;;5091040;28;20024;-64
2022/06/28 08:04:09;;;;;;;8.98;2.67;;;17.10;99.90;;;;;;5091207;28;20039;-65
2022/06/28 08:06:35;;;;;;;6.75;2.60;;;17.30;99.90;;;;;;5091071;28;20110;-64
2022/06/28 08:09:01;;;;;;;4.10;2.00;;;17.40;99.90;;;;;;5090298;28;20111;-64
2022/06/28 08:11:26;;;;;;;8.68;2.70;;;17.40;99.90;;;;;;5090853;28;20036;-64
2022/06/28 08:13:54;;;;;;;5.03;2.25;;;17.50;99.90;;;;;;5091205;28;20035;-64
2022/06/28 08:16:20;;;;;;;6.45;2.80;;;17.50;99.90;;;;;;5091198;28;20025;-64
2022/06/28 08:18:46;;;;;;;8.55;2.13;;;17.60;99.90;;;;;;5091057;28;20055;-64
2022/06/28 08:21:12;;;;;;;7.00;2.75;;;17.60;99.90;;;;;;5090537;28;20490;-64
2022/06/28 08:23:38;;;;;;;3.90;2.10;;;17.70;99.90;;;;;;5090542;28;20031;-64
2022/06/28 08:26:03;;;;;;;6.70;3.03;;;17.80;99.90;;;;;;5091140;28;20027;-65
2022/06/28 08:28:29;;;;;;;6.30;3.63;;;17.90;99.90;;;;;;5090661;28;20111;-64
2022/06/28 08:30:54;;;;;;;6.30;3.05;;;18.00;99.90;;;;;;5091026;28;20032;-65
2022/06/28 08:33:20;;;;;;;12.27;3.38;;;18.00;99.90;;;;;;5089810;28;20497;-64
2022/06/28 08:35:45;;;;;;;6.13;3.65;;;18.10;99.90;;;;;;5090725;28;20539;-65
2022/06/28 08:38:11;;;;;;;9.85;3.78;;;18.20;99.90;;;;;;5090825;28;20028;-64
2022/06/28 08:40:38;;;;;;;5.63;3.42;;;18.30;99.90;;;;;;5090229;28;20032;-64
2022/06/28 08:43:06;;;;;;;7.30;4.20;;;18.40;99.90;;;;;;5089821;28;20024;-64
2022/06/28 08:45:32;;;;;;;6.30;3.42;;;18.50;99.90;;;;;;5090696;28;20024;-64
2022/06/28 08:48:09;;;;;;;9.02;3.78;;;18.60;99.90;;;;;;5090660;28;20036;-64
2022/06/28 08:50:40;;;;;;;9.43;3.65;;;18.60;99.90;;;;;;5090674;28;20028;-64
2022/06/28 08:53:09;;;;;;;9.55;3.50;;;18.70;99.90;;;;;;5089769;28;20074;-65
2022/06/28 08:55:36;;;;;;;8.32;4.20;;;18.80;99.90;;;;;;5090653;28;20028;-64
2022/06/28 08:58:06;;;;;;;15.35;4.30;;;18.90;99.90;;;;;;5090099;28;20100;-64
2022/06/28 09:00:32;;;;;;;5.95;2.40;;;18.90;99.90;;;;;;5090431;28;20024;-64
2022/06/28 09:02:58;;;;;;;11.57;3.53;;;19.00;99.90;;;;;;5089089;28;20070;-64
2022/06/28 09:05:26;;;;;;;10.13;4.30;;;19.10;99.90;;;;;;5090246;28;20028;-64
2022/06/28 09:07:56;;;;;;;6.28;2.95;;;19.20;99.90;;;;;;5090328;28;20067;-64
2022/06/28 09:10:22;;;;;;;7.78;2.90;;;19.30;99.90;;;;;;5089514;28;20024;-64
2022/06/28 09:12:54;;;;;;;8.48;4.18;;;19.40;99.90;;;;;;5090300;28;20539;-64
2022/06/28 09:15:22;;;;;;;6.10;3.42;;;19.50;99.90;;;;;;5090464;28;20088;-64
2022/06/28 09:17:52;;;;;;;9.00;3.85;;;19.60;99.90;;;;;;5090137;28;20016;-64
2022/06/28 09:20:17;;;;;;;10.18;3.58;;;19.70;99.90;;;;;;5090520;28;20158;-64
2022/06/28 09:22:45;;;;;;;5.43;3.45;;;19.80;99.90;;;;;;5089769;28;20103;-63
2022/06/28 09:25:32;;;;;;;8.93;3.92;;;19.80;99.90;;;;;;5090105;28;20024;-64
2022/06/28 09:27:59;;;;;;;6.65;3.35;;;19.90;99.90;;;;;;5089792;28;20048;-64
2022/06/28 09:30:27;;;;;;;6.13;3.47;;;20.10;99.90;;;;;;5072121;28;20067;-64
2022/06/28 09:32:53;;;;;;;8.35;3.53;;;20.20;99.90;;;;;;5089420;28;20025;-64
2022/06/28 09:35:18;;;;;;;3.47;2.70;;;20.30;99.90;;;;;;5125686;22;20405;-59
2022/06/28 09:37:49;;;;;;;4.10;2.38;;;20.30;99.90;;;;;;5109460;28;20038;-59
2022/06/28 09:40:26;;;;;;;11.05;2.42;;;20.40;99.90;;;;;;5109448;28;20024;-58
2022/06/28 09:43:06;;;;;;;8.70;2.35;;;20.50;99.90;;;;;;5091433;28;20023;-60
2022/06/28 09:45:32;;;;;;;2.42;1.80;;;20.70;99.90;;;;;;5110324;28;20102;-59
2022/06/28 09:47:58;;;;;;;3.55;1.63;;;20.80;99.90;;;;;;5110886;28;20043;-59
2022/06/28 09:50:24;;;;;;;2.53;1.30;;;20.70;99.90;;;;;;5110659;28;20015;-59
2022/06/28 09:52:50;;;;;;;4.68;1.60;;;20.90;99.90;;;;;;5104334;28;20032;-59
2022/06/28 09:55:17;;;;;;;2.92;1.27;;;21.10;99.90;;;;;;5092950;28;20020;-59
2022/06/28 09:57:45;;;;;;;4.50;1.55;;;21.30;99.90;;;;;;5090224;28;20038;-58
2022/06/28 10:00:12;;;;;;;4.72;1.52;;;21.40;99.90;;;;;;5090314;28;20047;-59
2022/06/28 10:02:41;;;;;;;3.83;1.45;;;21.50;99.90;;;;;;5089876;28;20024;-58
2022/06/28 10:05:07;;;;;;;2.67;1.17;;;21.60;99.90;;;;;;5090122;28;20318;-58
2022/06/28 10:07:34;;;;;;;4.50;1.13;;;21.70;99.90;;;;;;5090312;28;20036;-56
2022/06/28 10:10:00;;;;;;;1.67;1.08;;;21.80;99.90;;;;;;5090471;28;20078;-58
2022/06/28 10:15:17;;;;;;;3.92;1.00;;;22.20;99.90;;;;;;5092610;28;20031;-58
2022/06/28 10:18:19;;;;;;;3.10;0.80;;;22.30;99.90;;;;;;5093880;28;20020;-57
2022/06/28 10:20:46;;;;;;;9.75;0.93;;;22.60;99.90;;;;;;5093632;28;20028;-58
2022/06/28 10:23:33;;;;;;;2.33;1.27;;;22.80;99.90;;;;;;5094544;28;20032;-58
2022/06/28 10:26:11;;;;;;;3.55;0.88;;;22.70;99.90;;;;;;5093716;28;20458;-58
2022/06/28 10:28:41;;;;;;;2.67;0.70;;;22.80;99.90;;;;;;5093806;28;20115;-59
2022/06/28 10:31:22;;;;;;;2.38;0.90;;;23.00;99.90;;;;;;5093777;28;20028;-58
2022/06/28 10:33:49;;;;;;;2.53;0.68;;;23.20;99.90;;;;;;5093216;28;20035;-59
2022/06/28 10:36:16;;;;;;;2.10;0.68;;;23.40;99.90;;;;;;5106677;28;20501;-59
2022/06/28 10:39:07;;;;;;;0.95;0.60;;;23.70;99.90;;;;;;5113876;28;20047;-59
2022/06/28 10:41:44;;;;;;;2.47;0.65;;;23.70;99.90;;;;;;5113051;28;20057;-59
2022/06/28 10:44:12;;;;;;;2.78;1.17;;;23.50;99.90;;;;;;5110308;28;20028;-58
2022/06/28 10:46:38;;;;;;;3.33;0.50;;;23.50;99.90;;;;;;5113600;28;20024;-57
2022/06/28 10:49:08;;;;;;;3.55;0.55;;;23.90;99.90;;;;;;5113498;28;20027;-57
2022/06/28 10:51:36;;;;;;;1.83;0.50;;;23.70;99.90;;;;;;5113317;28;20161;-58
2022/06/28 10:54:05;;;;;;;1.85;0.60;;;23.50;99.90;;;;;;5113362;28;20032;-57
2022/06/28 10:56:52;;;;;;;1.55;0.70;;;23.70;99.90;;;;;;5111720;28;20417;-58
2022/06/28 10:59:18;;;;;;;0.43;0.40;;;23.90;99.90;;;;;;5113008;28;20543;-57
2022/06/28 11:01:46;;;;;;;2.20;0.90;;;24.10;99.90;;;;;;5110964;28;20023;-59
2022/06/28 11:04:18;;;;;;;1.90;0.55;;;24.40;99.90;;;;;;5092861;28;20029;-59
2022/06/28 11:06:48;;;;;;;3.30;1.05;;;24.50;99.90;;;;;;5092798;28;20032;-60
2022/06/28 11:09:31;;;;;;;1.20;0.65;;;24.60;99.90;;;;;;5093856;28;20493;-59
2022/06/28 11:12:08;;;;;;;4.97;0.80;;;24.70;99.90;;;;;;5092492;28;20039;-59
2022/06/28 11:14:55;;;;;;;3.38;0.70;;;24.60;99.80;;;;;;5092596;28;20504;-59
2022/06/28 11:17:22;;;;;;;1.15;0.60;;;24.80;98.10;;;;;;5104958;28;20050;-59
2022/06/28 11:19:51;;;;;;;3.40;0.60;;;24.80;99.40;;;;;;5112961;28;20024;-59
2022/06/28 11:22:21;;;;;;;3.00;0.70;;;24.80;99.90;;;;;;5103835;28;20047;-60
2022/06/28 11:24:48;;;;;;;2.15;0.60;;;24.20;94.10;;;;;;5092428;28;20046;-60
2022/06/28 11:27:20;;;;;;;3.35;0.70;;;24.40;96.60;;;;;;5091449;28;20024;-59
2022/06/28 11:29:47;;;;;;;1.48;0.70;;;24.70;99.50;;;;;;5092535;28;20024;-59
2022/06/28 11:32:24;;;;;;;2.75;0.70;;;24.50;97.20;;;;;;5092251;28;20027;-60
2022/06/28 11:35:28;;;;;;;3.83;1.23;;;24.50;98.60;;;;;;5092367;28;20055;-60
2022/06/28 11:37:56;;;;;;;3.15;1.30;;;24.90;99.90;;;;;;5091960;28;20431;-58
2022/06/28 11:40:40;;;;;;;2.22;1.10;;;25.30;97.00;;;;;;5092539;28;20032;-58
2022/06/28 11:43:10;;;;;;;2.78;1.15;;;25.20;99.90;;;;;;5092252;28;20050;-60
2022/06/28 11:45:38;;;;;;;1.83;1.00;;;25.70;98.20;;;;;;5092816;28;20028;-59
2022/06/28 11:48:10;;;;;;;1.48;0.88;;;25.90;99.50;;;;;;5094505;28;20107;-58
2022/06/28 11:50:43;;;;;;;1.85;0.70;;;26.00;99.90;;;;;;5096567;28;20530;-59
2022/06/28 11:53:10;;;;;;;2.70;1.10;;;25.80;94.60;;;;;;5112248;28;20051;-60
2022/06/28 11:55:55;;;;;;;2.33;0.60;;;25.60;92.80;;;;;;5112669;28;20035;-59
2022/06/28 11:58:32;;;;;;;2.40;0.85;;;25.70;95.60;;;;;;5112632;28;20019;-59
2022/06/28 12:01:12;;;;;;;3.90;0.80;;;26.00;94.70;;;;;;5112369;28;20028;-59
2022/06/28 12:03:43;;;;;;;1.67;0.70;;;26.20;98.80;;;;;;5112179;28;20023;-59
2022/06/28 12:06:31;;;;;;;1.63;0.77;;;26.10;96.30;;;;;;5092490;28;20036;-59
2022/06/28 12:08:58;;;;;;;3.10;0.70;;;26.00;97.80;;;;;;5092088;28;20175;-59
2022/06/28 12:11:29;;;;;;;2.78;0.60;;;26.20;94.70;;;;;;5091691;28;20097;-59
2022/06/28 12:14:14;;;;;;;1.02;0.57;;;26.20;97.80;;;;;;5091728;28;20466;-58
2022/06/28 12:16:45;;;;;;;1.17;0.65;;;26.00;99.90;;;;;;5092130;28;20112;-59
2022/06/28 12:19:15;;;;;;;2.72;0.90;;;26.00;94.60;;;;;;5096914;28;20056;-58
2022/06/28 12:22:08;;;;;;;3.13;0.98;;;26.10;98.80;;;;;;5111934;27;20031;-58
2022/06/28 12:24:55;;;;;;;4.10;0.77;;;26.00;99.90;;;;;;5112298;28;20062;-58
2022/06/28 12:27:21;;;;;;;2.70;1.10;;;26.30;99.90;;;;;;5110841;28;20444;-59
2022/06/28 12:29:48;;;;;;;1.65;0.57;;;26.30;95.70;;;;;;5112105;28;20024;-59
2022/06/28 12:32:14;;;;;;;3.25;0.80;;;26.10;96.40;;;;;;5110603;28;20111;-59
2022/06/28 12:34:40;;;;;;;0.90;0.60;;;26.70;92.60;;;;;;5093092;28;20039;-59
2022/06/28 12:37:07;;;;;;;0.73;0.55;;;26.80;93.30;;;;;;5091484;28;20028;-59
2022/06/28 12:39:32;;;;;;;1.50;0.60;;;26.40;93.40;;;;;;5091807;28;20082;-60
2022/06/28 12:41:58;;;;;;;5.88;0.50;;;26.10;93.40;;;;;;5091200;28;20028;-58
2022/06/28 12:44:24;;;;;;;0.88;0.63;;;26.30;95.30;;;;;;5091589;28;20020;-58
2022/06/28 12:46:51;;;;;;;1.98;0.80;;;26.90;94.90;;;;;;5091477;28;20046;-59
2022/06/28 12:49:18;;;;;;;1.08;0.52;;;27.30;91.80;;;;;;5093394;28;20052;-56
2022/06/28 12:51:43;;;;;;;1.63;0.60;;;27.60;85.30;;;;;;5110255;28;20069;-60
2022/06/28 12:54:09;;;;;;;2.15;0.60;;;27.30;90.20;;;;;;5095408;28;20056;-59
2022/06/28 12:56:34;;;;;;;1.48;0.55;;;27.20;90.50;;;;;;5092393;28;20028;-58